sensor_id;sensor_type;location;lat;lon;timestamp;P1;durP1;ratioP1;P2;durP2;ratioP2
25653;SDS011;13511;48.622;9.230;2023-04-03T00:01:38;8.77;;;7.97;;
25653;SDS011;13511;48.622;9.230;2023-04-03T00:04:05;8.48;;;7.90;;
25653;SDS011;13511;48.622;9.230;2023-04-03T00:06:31;8.15;;;7.60;;
25653;SDS011;13511;48.622;9.230;2023-04-03T00:08:58;8.73;;;8.13;;
25653;SDS011;13511;48.622;9.230;2023-04-03T00:11:24;7.75;;;7.35;;
25653;SDS011;13511;48.622;9.230;2023-04-03T00:13:51;7.88;;;7.47;;
25653;SDS011;13511;48.622;9.230;2023-04-03T00:16:17;7.72;;;7.20;;
25653;SDS011;13511;48.622;9.230;2023-04-03T00:18:43;7.65;;;7.20;;
25653;SDS011;13511;48.622;9.230;2023-04-03T00:21:10;9.15;;;8.10;;
25653;SDS011;13511;48.622;9.230;2023-04-03T00:23:37;8.05;;;7.60;;
25653;SDS011;13511;48.622;9.230;2023-04-03T00:26:03;8.35;;;7.80;;
25653;SDS011;13511;48.622;9.230;2023-04-03T00:28:29;8.25;;;7.68;;
25653;SDS011;13511;48.622;9.230;2023-04-03T00:30:55;8.50;;;7.78;;
25653;SDS011;13511;48.622;9.230;2023-04-03T00:33:21;8.25;;;7.63;;
25653;SDS011;13511;48.622;9.230;2023-04-03T00:35:48;8.90;;;8.20;;
25653;SDS011;13511;48.622;9.230;2023-04-03T00:38:15;8.23;;;7.63;;
25653;SDS011;13511;48.622;9.230;2023-04-03T00:40:42;8.02;;;7.47;;
25653;SDS011;13511;48.622;9.230;2023-04-03T00:43:11;9.02;;;8.35;;
25653;SDS011;13511;48.622;9.230;2023-04-03T00:45:41;7.93;;;7.53;;
25653;SDS011;13511;48.622;9.230;2023-04-03T00:48:10;8.38;;;7.88;;
25653;SDS011;13511;48.622;9.230;2023-04-03T00:50:38;7.72;;;7.18;;
25653;SDS011;13511;48.622;9.230;2023-04-03T00:53:05;8.38;;;7.88;;
25653;SDS011;13511;48.622;9.230;2023-04-03T00:55:32;7.97;;;7.28;;
25653;SDS011;13511;48.622;9.230;2023-04-03T00:57:58;8.20;;;7.70;;
25653;SDS011;13511;48.622;9.230;2023-04-03T01:00:25;7.75;;;7.35;;
25653;SDS011;13511;48.622;9.230;2023-04-03T01:02:52;8.15;;;7.65;;
25653;SDS011;13511;48.622;9.230;2023-04-03T01:05:18;8.45;;;7.90;;
25653;SDS011;13511;48.622;9.230;2023-04-03T01:07:45;8.05;;;7.53;;
25653;SDS011;13511;48.622;9.230;2023-04-03T01:10:11;7.80;;;7.30;;
25653;SDS011;13511;48.622;9.230;2023-04-03T01:12:40;8.43;;;7.60;;
25653;SDS011;13511;48.622;9.230;2023-04-03T01:15:08;8.32;;;7.78;;
25653;SDS011;13511;48.622;9.230;2023-04-03T01:17:36;9.13;;;7.50;;
25653;SDS011;13511;48.622;9.230;2023-04-03T01:22:43;8.45;;;7.85;;
25653;SDS011;13511;48.622;9.230;2023-04-03T01:25:12;7.28;;;6.88;;
25653;SDS011;13511;48.622;9.230;2023-04-03T01:27:38;7.45;;;7.05;;
25653;SDS011;13511;48.622;9.230;2023-04-03T01:30:04;7.78;;;7.38;;
25653;SDS011;13511;48.622;9.230;2023-04-03T01:32:30;8.32;;;7.75;;
25653;SDS011;13511;48.622;9.230;2023-04-03T01:34:56;8.20;;;7.60;;
25653;SDS011;13511;48.622;9.230;2023-04-03T01:37:22;8.07;;;7.47;;
25653;SDS011;13511;48.622;9.230;2023-04-03T01:39:48;8.95;;;8.07;;
25653;SDS011;13511;48.622;9.230;2023-04-03T01:42:14;8.65;;;7.82;;
25653;SDS011;13511;48.622;9.230;2023-04-03T01:44:41;8.60;;;7.90;;
25653;SDS011;13511;48.622;9.230;2023-04-03T01:47:07;8.50;;;8.00;;
25653;SDS011;13511;48.622;9.230;2023-04-03T01:49:33;8.82;;;8.18;;
25653;SDS011;13511;48.622;9.230;2023-04-03T01:51:59;8.70;;;7.90;;
25653;SDS011;13511;48.622;9.230;2023-04-03T01:54:25;9.45;;;8.45;;
25653;SDS011;13511;48.622;9.230;2023-04-03T01:56:51;8.57;;;8.05;;
25653;SDS011;13511;48.622;9.230;2023-04-03T01:59:17;8.68;;;8.07;;
25653;SDS011;13511;48.622;9.230;2023-04-03T02:01:44;9.05;;;8.35;;
25653;SDS011;13511;48.622;9.230;2023-04-03T02:04:11;10.00;;;8.75;;
25653;SDS011;13511;48.622;9.230;2023-04-03T02:06:37;8.70;;;8.20;;
25653;SDS011;13511;48.622;9.230;2023-04-03T02:09:03;8.88;;;8.38;;
25653;SDS011;13511;48.622;9.230;2023-04-03T02:11:29;9.27;;;8.40;;
25653;SDS011;13511;48.622;9.230;2023-04-03T02:13:55;8.45;;;7.95;;
25653;SDS011;13511;48.622;9.230;2023-04-03T02:16:21;8.20;;;7.70;;
25653;SDS011;13511;48.622;9.230;2023-04-03T02:18:47;8.93;;;8.20;;
25653;SDS011;13511;48.622;9.230;2023-04-03T02:21:13;8.55;;;7.95;;
25653;SDS011;13511;48.622;9.230;2023-04-03T02:23:39;8.75;;;8.18;;
25653;SDS011;13511;48.622;9.230;2023-04-03T02:26:10;9.13;;;8.32;;
25653;SDS011;13511;48.622;9.230;2023-04-03T02:28:36;8.25;;;7.75;;
25653;SDS011;13511;48.622;9.230;2023-04-03T02:31:03;8.18;;;7.47;;
25653;SDS011;13511;48.622;9.230;2023-04-03T02:33:30;8.45;;;7.95;;
25653;SDS011;13511;48.622;9.230;2023-04-03T02:35:56;8.73;;;8.23;;
25653;SDS011;13511;48.622;9.230;2023-04-03T02:38:22;8.55;;;7.95;;
25653;SDS011;13511;48.622;9.230;2023-04-03T02:40:48;7.82;;;7.30;;
25653;SDS011;13511;48.622;9.230;2023-04-03T02:43:14;8.40;;;7.88;;
25653;SDS011;13511;48.622;9.230;2023-04-03T02:45:40;8.63;;;8.05;;
25653;SDS011;13511;48.622;9.230;2023-04-03T02:48:06;8.52;;;7.80;;
25653;SDS011;13511;48.622;9.230;2023-04-03T02:50:33;8.40;;;7.85;;
25653;SDS011;13511;48.622;9.230;2023-04-03T02:52:59;8.27;;;7.60;;
25653;SDS011;13511;48.622;9.230;2023-04-03T02:55:25;9.10;;;8.50;;
25653;SDS011;13511;48.622;9.230;2023-04-03T02:57:51;8.48;;;7.97;;
25653;SDS011;13511;48.622;9.230;2023-04-03T03:00:17;8.30;;;7.70;;
25653;SDS011;13511;48.622;9.230;2023-04-03T03:02:43;8.80;;;8.20;;
25653;SDS011;13511;48.622;9.230;2023-04-03T03:05:09;9.45;;;8.85;;
25653;SDS011;13511;48.622;9.230;2023-04-03T03:07:35;8.82;;;8.13;;
25653;SDS011;13511;48.622;9.230;2023-04-03T03:10:01;8.88;;;8.18;;
25653;SDS011;13511;48.622;9.230;2023-04-03T03:12:27;8.27;;;7.80;;
25653;SDS011;13511;48.622;9.230;2023-04-03T03:14:53;7.90;;;7.50;;
25653;SDS011;13511;48.622;9.230;2023-04-03T03:17:19;8.35;;;7.85;;
25653;SDS011;13511;48.622;9.230;2023-04-03T03:19:45;8.70;;;8.07;;
25653;SDS011;13511;48.622;9.230;2023-04-03T03:22:11;8.30;;;7.65;;
25653;SDS011;13511;48.622;9.230;2023-04-03T03:24:37;8.50;;;7.90;;
25653;SDS011;13511;48.622;9.230;2023-04-03T03:27:03;8.43;;;7.82;;
25653;SDS011;13511;48.622;9.230;2023-04-03T03:29:29;8.90;;;8.40;;
25653;SDS011;13511;48.622;9.230;2023-04-03T03:31:55;9.52;;;8.90;;
25653;SDS011;13511;48.622;9.230;2023-04-03T03:34:21;8.90;;;8.30;;
25653;SDS011;13511;48.622;9.230;2023-04-03T03:36:47;9.35;;;8.63;;
25653;SDS011;13511;48.622;9.230;2023-04-03T03:39:13;8.90;;;8.23;;
25653;SDS011;13511;48.622;9.230;2023-04-03T03:41:39;9.02;;;8.40;;
25653;SDS011;13511;48.622;9.230;2023-04-03T03:44:05;8.95;;;8.48;;
25653;SDS011;13511;48.622;9.230;2023-04-03T03:46:31;9.23;;;8.73;;
25653;SDS011;13511;48.622;9.230;2023-04-03T03:48:57;9.00;;;8.40;;
25653;SDS011;13511;48.622;9.230;2023-04-03T03:51:24;9.32;;;8.48;;
25653;SDS011;13511;48.622;9.230;2023-04-03T03:53:50;8.85;;;8.18;;
25653;SDS011;13511;48.622;9.230;2023-04-03T03:56:16;9.70;;;8.95;;
25653;SDS011;13511;48.622;9.230;2023-04-03T03:58:42;8.55;;;8.05;;
25653;SDS011;13511;48.622;9.230;2023-04-03T04:01:08;8.57;;;7.95;;
25653;SDS011;13511;48.622;9.230;2023-04-03T04:03:34;9.18;;;8.68;;
25653;SDS011;13511;48.622;9.230;2023-04-03T04:06:00;8.48;;;8.07;;
25653;SDS011;13511;48.622;9.230;2023-04-03T04:08:26;9.30;;;8.80;;
25653;SDS011;13511;48.622;9.230;2023-04-03T04:10:52;9.25;;;8.65;;
25653;SDS011;13511;48.622;9.230;2023-04-03T04:13:18;9.77;;;9.07;;
25653;SDS011;13511;48.622;9.230;2023-04-03T04:15:44;9.48;;;8.88;;
25653;SDS011;13511;48.622;9.230;2023-04-03T04:18:10;8.93;;;8.43;;
25653;SDS011;13511;48.622;9.230;2023-04-03T04:20:36;9.55;;;8.65;;
25653;SDS011;13511;48.622;9.230;2023-04-03T04:23:02;9.32;;;8.82;;
25653;SDS011;13511;48.622;9.230;2023-04-03T04:25:28;10.35;;;9.30;;
25653;SDS011;13511;48.622;9.230;2023-04-03T04:27:54;9.48;;;8.88;;
25653;SDS011;13511;48.622;9.230;2023-04-03T04:30:20;9.07;;;8.57;;
25653;SDS011;13511;48.622;9.230;2023-04-03T04:32:46;9.20;;;8.70;;
25653;SDS011;13511;48.622;9.230;2023-04-03T04:35:12;10.45;;;9.38;;
25653;SDS011;13511;48.622;9.230;2023-04-03T04:37:38;8.77;;;8.27;;
25653;SDS011;13511;48.622;9.230;2023-04-03T04:40:04;9.52;;;8.70;;
25653;SDS011;13511;48.622;9.230;2023-04-03T04:42:30;9.40;;;8.90;;
25653;SDS011;13511;48.622;9.230;2023-04-03T04:44:56;9.65;;;8.85;;
25653;SDS011;13511;48.622;9.230;2023-04-03T04:47:22;10.20;;;9.27;;
25653;SDS011;13511;48.622;9.230;2023-04-03T04:49:48;10.18;;;9.55;;
25653;SDS011;13511;48.622;9.230;2023-04-03T04:52:15;9.40;;;8.80;;
25653;SDS011;13511;48.622;9.230;2023-04-03T04:54:41;9.18;;;8.68;;
25653;SDS011;13511;48.622;9.230;2023-04-03T04:57:07;9.45;;;8.73;;
25653;SDS011;13511;48.622;9.230;2023-04-03T04:59:33;9.73;;;9.07;;
25653;SDS011;13511;48.622;9.230;2023-04-03T05:01:59;9.35;;;8.73;;
25653;SDS011;13511;48.622;9.230;2023-04-03T05:04:25;9.98;;;9.27;;
25653;SDS011;13511;48.622;9.230;2023-04-03T05:06:51;9.80;;;9.23;;
25653;SDS011;13511;48.622;9.230;2023-04-03T05:09:17;9.60;;;9.05;;
25653;SDS011;13511;48.622;9.230;2023-04-03T05:11:45;9.15;;;8.65;;
25653;SDS011;13511;48.622;9.230;2023-04-03T05:14:11;9.43;;;8.85;;
25653;SDS011;13511;48.622;9.230;2023-04-03T05:16:37;9.45;;;8.88;;
25653;SDS011;13511;48.622;9.230;2023-04-03T05:19:03;8.93;;;8.43;;
25653;SDS011;13511;48.622;9.230;2023-04-03T05:21:29;9.55;;;8.93;;
25653;SDS011;13511;48.622;9.230;2023-04-03T05:24:00;8.30;;;7.80;;
25653;SDS011;13511;48.622;9.230;2023-04-03T05:26:27;8.75;;;8.20;;
25653;SDS011;13511;48.622;9.230;2023-04-03T05:28:53;9.05;;;8.55;;
25653;SDS011;13511;48.622;9.230;2023-04-03T05:31:20;8.90;;;8.35;;
25653;SDS011;13511;48.622;9.230;2023-04-03T05:33:46;8.75;;;8.25;;
25653;SDS011;13511;48.622;9.230;2023-04-03T05:36:12;9.20;;;8.70;;
25653;SDS011;13511;48.622;9.230;2023-04-03T05:38:38;8.75;;;8.35;;
25653;SDS011;13511;48.622;9.230;2023-04-03T05:41:04;9.30;;;8.70;;
25653;SDS011;13511;48.622;9.230;2023-04-03T05:43:30;8.50;;;8.10;;
25653;SDS011;13511;48.622;9.230;2023-04-03T05:45:57;14.27;;;9.38;;
25653;SDS011;13511;48.622;9.230;2023-04-03T05:48:23;7.78;;;7.32;;
25653;SDS011;13511;48.622;9.230;2023-04-03T05:50:50;8.10;;;7.70;;
25653;SDS011;13511;48.622;9.230;2023-04-03T05:53:17;10.98;;;8.57;;
25653;SDS011;13511;48.622;9.230;2023-04-03T05:55:44;12.88;;;7.60;;
25653;SDS011;13511;48.622;9.230;2023-04-03T05:58:10;8.57;;;7.88;;
25653;SDS011;13511;48.622;9.230;2023-04-03T06:00:36;8.32;;;7.50;;
25653;SDS011;13511;48.622;9.230;2023-04-03T06:03:02;8.15;;;7.60;;
25653;SDS011;13511;48.622;9.230;2023-04-03T06:05:28;8.32;;;7.57;;
25653;SDS011;13511;48.622;9.230;2023-04-03T06:07:55;8.13;;;7.63;;
25653;SDS011;13511;48.622;9.230;2023-04-03T06:10:22;8.43;;;7.88;;
25653;SDS011;13511;48.622;9.230;2023-04-03T06:12:48;8.18;;;7.63;;
25653;SDS011;13511;48.622;9.230;2023-04-03T06:15:14;8.43;;;7.82;;
25653;SDS011;13511;48.622;9.230;2023-04-03T06:17:41;8.35;;;7.72;;
25653;SDS011;13511;48.622;9.230;2023-04-03T06:20:07;8.10;;;7.53;;
25653;SDS011;13511;48.622;9.230;2023-04-03T06:22:34;8.50;;;8.00;;
25653;SDS011;13511;48.622;9.230;2023-04-03T06:25:00;8.43;;;7.85;;
25653;SDS011;13511;48.622;9.230;2023-04-03T06:27:26;7.95;;;7.57;;
25653;SDS011;13511;48.622;9.230;2023-04-03T06:29:52;8.80;;;8.10;;
25653;SDS011;13511;48.622;9.230;2023-04-03T06:32:18;10.65;;;8.85;;
25653;SDS011;13511;48.622;9.230;2023-04-03T06:34:44;8.88;;;8.30;;
25653;SDS011;13511;48.622;9.230;2023-04-03T06:37:19;8.70;;;8.10;;
25653;SDS011;13511;48.622;9.230;2023-04-03T06:39:45;8.57;;;7.80;;
25653;SDS011;13511;48.622;9.230;2023-04-03T06:42:11;7.60;;;7.30;;
25653;SDS011;13511;48.622;9.230;2023-04-03T06:44:38;7.45;;;7.10;;
25653;SDS011;13511;48.622;9.230;2023-04-03T06:47:04;8.40;;;7.80;;
25653;SDS011;13511;48.622;9.230;2023-04-03T06:49:30;8.20;;;7.78;;
25653;SDS011;13511;48.622;9.230;2023-04-03T06:51:57;8.32;;;7.68;;
25653;SDS011;13511;48.622;9.230;2023-04-03T06:54:23;7.63;;;7.25;;
25653;SDS011;13511;48.622;9.230;2023-04-03T06:56:49;7.68;;;7.28;;
25653;SDS011;13511;48.622;9.230;2023-04-03T06:59:15;8.27;;;7.78;;
25653;SDS011;13511;48.622;9.230;2023-04-03T07:01:42;7.93;;;7.43;;
25653;SDS011;13511;48.622;9.230;2023-04-03T07:04:08;8.55;;;7.75;;
25653;SDS011;13511;48.622;9.230;2023-04-03T07:06:34;7.72;;;7.32;;
25653;SDS011;13511;48.622;9.230;2023-04-03T07:09:01;8.40;;;7.50;;
25653;SDS011;13511;48.622;9.230;2023-04-03T07:11:27;7.90;;;7.10;;
25653;SDS011;13511;48.622;9.230;2023-04-03T07:13:53;7.90;;;7.50;;
25653;SDS011;13511;48.622;9.230;2023-04-03T07:16:20;8.35;;;7.57;;
25653;SDS011;13511;48.622;9.230;2023-04-03T07:18:46;8.20;;;7.60;;
25653;SDS011;13511;48.622;9.230;2023-04-03T07:21:12;8.02;;;7.43;;
25653;SDS011;13511;48.622;9.230;2023-04-03T07:23:38;10.50;;;8.43;;
25653;SDS011;13511;48.622;9.230;2023-04-03T07:26:04;8.10;;;7.60;;
25653;SDS011;13511;48.622;9.230;2023-04-03T07:28:30;7.50;;;7.00;;
25653;SDS011;13511;48.622;9.230;2023-04-03T07:33:26;7.85;;;7.45;;
25653;SDS011;13511;48.622;9.230;2023-04-03T07:35:52;8.05;;;7.50;;
25653;SDS011;13511;48.622;9.230;2023-04-03T07:38:18;7.75;;;7.25;;
25653;SDS011;13511;48.622;9.230;2023-04-03T07:40:48;8.23;;;7.60;;
25653;SDS011;13511;48.622;9.230;2023-04-03T07:43:15;8.32;;;7.82;;
25653;SDS011;13511;48.622;9.230;2023-04-03T07:45:41;7.53;;;7.13;;
25653;SDS011;13511;48.622;9.230;2023-04-03T07:48:08;7.45;;;7.05;;
25653;SDS011;13511;48.622;9.230;2023-04-03T07:50:34;7.50;;;6.85;;
25653;SDS011;13511;48.622;9.230;2023-04-03T07:53:01;8.13;;;7.50;;
25653;SDS011;13511;48.622;9.230;2023-04-03T07:55:27;7.70;;;7.30;;
25653;SDS011;13511;48.622;9.230;2023-04-03T07:57:53;7.68;;;7.05;;
25653;SDS011;13511;48.622;9.230;2023-04-03T08:00:20;7.45;;;6.95;;
25653;SDS011;13511;48.622;9.230;2023-04-03T08:02:46;9.73;;;7.35;;
25653;SDS011;13511;48.622;9.230;2023-04-03T08:05:19;7.57;;;7.05;;
25653;SDS011;13511;48.622;9.230;2023-04-03T08:07:46;7.63;;;7.13;;
25653;SDS011;13511;48.622;9.230;2023-04-03T08:10:12;7.22;;;6.82;;
25653;SDS011;13511;48.622;9.230;2023-04-03T08:12:39;7.80;;;7.32;;
25653;SDS011;13511;48.622;9.230;2023-04-03T08:15:06;6.95;;;6.53;;
25653;SDS011;13511;48.622;9.230;2023-04-03T08:17:33;8.15;;;7.45;;
25653;SDS011;13511;48.622;9.230;2023-04-03T08:19:59;7.03;;;6.72;;
25653;SDS011;13511;48.622;9.230;2023-04-03T08:22:25;7.90;;;7.30;;
25653;SDS011;13511;48.622;9.230;2023-04-03T08:24:51;8.30;;;7.70;;
25653;SDS011;13511;48.622;9.230;2023-04-03T08:27:17;7.63;;;7.13;;
25653;SDS011;13511;48.622;9.230;2023-04-03T08:29:43;7.65;;;6.97;;
25653;SDS011;13511;48.622;9.230;2023-04-03T08:32:10;7.13;;;6.82;;
25653;SDS011;13511;48.622;9.230;2023-04-03T08:34:36;7.82;;;7.32;;
25653;SDS011;13511;48.622;9.230;2023-04-03T08:37:04;8.25;;;7.75;;
25653;SDS011;13511;48.622;9.230;2023-04-03T08:39:30;7.78;;;7.22;;
25653;SDS011;13511;48.622;9.230;2023-04-03T08:41:57;8.07;;;7.22;;
25653;SDS011;13511;48.622;9.230;2023-04-03T08:44:43;7.30;;;6.82;;
25653;SDS011;13511;48.622;9.230;2023-04-03T08:52:07;8.18;;;7.40;;
25653;SDS011;13511;48.622;9.230;2023-04-03T08:57:15;7.38;;;6.95;;
25653;SDS011;13511;48.622;9.230;2023-04-03T08:59:41;7.18;;;6.78;;
25653;SDS011;13511;48.622;9.230;2023-04-03T09:02:27;6.90;;;6.50;;
25653;SDS011;13511;48.622;9.230;2023-04-03T09:04:55;8.82;;;8.02;;
25653;SDS011;13511;48.622;9.230;2023-04-03T09:07:39;7.57;;;7.18;;
25653;SDS011;13511;48.622;9.230;2023-04-03T09:10:08;7.90;;;7.30;;
25653;SDS011;13511;48.622;9.230;2023-04-03T09:12:40;7.35;;;6.75;;
25653;SDS011;13511;48.622;9.230;2023-04-03T09:22:44;7.05;;;6.63;;
25653;SDS011;13511;48.622;9.230;2023-04-03T09:25:18;6.55;;;6.15;;
25653;SDS011;13511;48.622;9.230;2023-04-03T09:27:46;7.32;;;6.72;;
25653;SDS011;13511;48.622;9.230;2023-04-03T09:30:13;7.45;;;7.03;;
25653;SDS011;13511;48.622;9.230;2023-04-03T09:32:39;7.63;;;6.82;;
25653;SDS011;13511;48.622;9.230;2023-04-03T09:37:51;6.93;;;6.53;;
25653;SDS011;13511;48.622;9.230;2023-04-03T09:42:54;11.80;;;10.55;;
25653;SDS011;13511;48.622;9.230;2023-04-03T09:45:22;9.52;;;6.75;;
25653;SDS011;13511;48.622;9.230;2023-04-03T09:47:50;7.13;;;6.72;;
25653;SDS011;13511;48.622;9.230;2023-04-03T09:50:29;7.40;;;6.68;;
25653;SDS011;13511;48.622;9.230;2023-04-03T09:52:56;7.80;;;7.28;;
25653;SDS011;13511;48.622;9.230;2023-04-03T09:55:23;7.57;;;6.88;;
25653;SDS011;13511;48.622;9.230;2023-04-03T09:57:54;7.68;;;6.97;;
25653;SDS011;13511;48.622;9.230;2023-04-03T10:00:22;7.10;;;6.70;;
25653;SDS011;13511;48.622;9.230;2023-04-03T10:02:55;6.95;;;6.57;;
25653;SDS011;13511;48.622;9.230;2023-04-03T10:13:11;7.50;;;7.10;;
25653;SDS011;13511;48.622;9.230;2023-04-03T10:18:06;7.22;;;6.72;;
25653;SDS011;13511;48.622;9.230;2023-04-03T10:20:40;6.40;;;6.10;;
25653;SDS011;13511;48.622;9.230;2023-04-03T10:23:15;6.40;;;6.03;;
25653;SDS011;13511;48.622;9.230;2023-04-03T10:25:43;7.13;;;6.63;;
25653;SDS011;13511;48.622;9.230;2023-04-03T10:28:16;6.25;;;6.05;;
25653;SDS011;13511;48.622;9.230;2023-04-03T10:38:29;6.60;;;6.28;;
25653;SDS011;13511;48.622;9.230;2023-04-03T10:41:17;6.82;;;6.50;;
25653;SDS011;13511;48.622;9.230;2023-04-03T10:46:49;6.63;;;6.13;;
25653;SDS011;13511;48.622;9.230;2023-04-03T10:49:21;6.72;;;6.22;;
25653;SDS011;13511;48.622;9.230;2023-04-03T10:52:14;6.38;;;6.05;;
25653;SDS011;13511;48.622;9.230;2023-04-03T10:54:43;6.63;;;6.13;;
25653;SDS011;13511;48.622;9.230;2023-04-03T10:57:11;6.63;;;6.22;;
25653;SDS011;13511;48.622;9.230;2023-04-03T11:04:44;6.55;;;6.07;;
25653;SDS011;13511;48.622;9.230;2023-04-03T11:07:12;6.60;;;6.20;;
25653;SDS011;13511;48.622;9.230;2023-04-03T11:09:41;6.85;;;6.35;;
25653;SDS011;13511;48.622;9.230;2023-04-03T11:12:23;7.10;;;6.30;;
25653;SDS011;13511;48.622;9.230;2023-04-03T11:14:51;6.75;;;6.35;;
25653;SDS011;13511;48.622;9.230;2023-04-03T11:22:22;6.93;;;6.30;;
25653;SDS011;13511;48.622;9.230;2023-04-03T11:24:57;6.13;;;5.82;;
25653;SDS011;13511;48.622;9.230;2023-04-03T11:27:24;6.47;;;6.10;;
25653;SDS011;13511;48.622;9.230;2023-04-03T11:29:51;6.28;;;5.97;;
25653;SDS011;13511;48.622;9.230;2023-04-03T11:32:26;6.72;;;6.25;;
25653;SDS011;13511;48.622;9.230;2023-04-03T11:34:56;6.80;;;6.28;;
25653;SDS011;13511;48.622;9.230;2023-04-03T11:39:57;6.47;;;6.10;;
25653;SDS011;13511;48.622;9.230;2023-04-03T11:42:40;6.05;;;5.72;;
25653;SDS011;13511;48.622;9.230;2023-04-03T11:50:44;6.78;;;6.28;;
25653;SDS011;13511;48.622;9.230;2023-04-03T11:55:44;6.47;;;6.10;;
25653;SDS011;13511;48.622;9.230;2023-04-03T11:58:15;6.55;;;6.13;;
25653;SDS011;13511;48.622;9.230;2023-04-03T12:13:36;6.35;;;5.80;;
25653;SDS011;13511;48.622;9.230;2023-04-03T12:16:04;7.75;;;6.28;;
25653;SDS011;13511;48.622;9.230;2023-04-03T12:23:57;6.05;;;5.65;;
25653;SDS011;13511;48.622;9.230;2023-04-03T12:26:27;5.88;;;5.57;;
25653;SDS011;13511;48.622;9.230;2023-04-03T12:28:54;6.25;;;5.88;;
25653;SDS011;13511;48.622;9.230;2023-04-03T12:31:20;5.90;;;5.57;;
25653;SDS011;13511;48.622;9.230;2023-04-03T12:42:30;6.03;;;5.65;;
25653;SDS011;13511;48.622;9.230;2023-04-03T12:47:42;6.40;;;6.03;;
25653;SDS011;13511;48.622;9.230;2023-04-03T12:50:19;6.20;;;5.78;;
25653;SDS011;13511;48.622;9.230;2023-04-03T12:52:54;6.60;;;6.00;;
25653;SDS011;13511;48.622;9.230;2023-04-03T12:55:22;6.20;;;5.90;;
25653;SDS011;13511;48.622;9.230;2023-04-03T12:57:48;6.10;;;5.65;;
25653;SDS011;13511;48.622;9.230;2023-04-03T13:00:21;6.15;;;5.50;;
25653;SDS011;13511;48.622;9.230;2023-04-03T13:02:48;6.30;;;5.90;;
25653;SDS011;13511;48.622;9.230;2023-04-03T13:05:16;6.28;;;5.78;;
25653;SDS011;13511;48.622;9.230;2023-04-03T13:07:42;5.90;;;5.57;;
25653;SDS011;13511;48.622;9.230;2023-04-03T13:12:35;6.65;;;6.10;;
25653;SDS011;13511;48.622;9.230;2023-04-03T13:15:18;6.10;;;5.60;;
25653;SDS011;13511;48.622;9.230;2023-04-03T13:17:44;5.95;;;5.65;;
25653;SDS011;13511;48.622;9.230;2023-04-03T13:20:29;5.90;;;5.40;;
25653;SDS011;13511;48.622;9.230;2023-04-03T13:23:04;5.72;;;5.43;;
25653;SDS011;13511;48.622;9.230;2023-04-03T13:25:33;6.07;;;5.82;;
25653;SDS011;13511;48.622;9.230;2023-04-03T13:27:59;6.07;;;5.68;;
25653;SDS011;13511;48.622;9.230;2023-04-03T13:30:30;6.22;;;5.63;;
25653;SDS011;13511;48.622;9.230;2023-04-03T13:32:58;6.18;;;5.88;;
25653;SDS011;13511;48.622;9.230;2023-04-03T13:35:28;9.13;;;5.95;;
25653;SDS011;13511;48.622;9.230;2023-04-03T13:37:56;7.00;;;6.28;;
25653;SDS011;13511;48.622;9.230;2023-04-03T13:40:23;6.40;;;5.93;;
25653;SDS011;13511;48.622;9.230;2023-04-03T13:42:58;5.70;;;5.43;;
25653;SDS011;13511;48.622;9.230;2023-04-03T13:45:26;5.90;;;5.60;;
25653;SDS011;13511;48.622;9.230;2023-04-03T13:48:05;6.40;;;6.00;;
25653;SDS011;13511;48.622;9.230;2023-04-03T13:50:32;6.00;;;5.60;;
25653;SDS011;13511;48.622;9.230;2023-04-03T13:53:03;6.55;;;5.95;;
25653;SDS011;13511;48.622;9.230;2023-04-03T13:55:35;5.95;;;5.60;;
25653;SDS011;13511;48.622;9.230;2023-04-03T14:05:59;6.85;;;6.28;;
25653;SDS011;13511;48.622;9.230;2023-04-03T14:08:26;8.98;;;6.07;;
25653;SDS011;13511;48.622;9.230;2023-04-03T14:10:53;7.13;;;6.53;;
25653;SDS011;13511;48.622;9.230;2023-04-03T14:13:20;6.20;;;5.90;;
25653;SDS011;13511;48.622;9.230;2023-04-03T14:15:47;6.60;;;6.10;;
25653;SDS011;13511;48.622;9.230;2023-04-03T14:18:14;6.72;;;6.28;;
25653;SDS011;13511;48.622;9.230;2023-04-03T14:20:42;6.22;;;5.82;;
25653;SDS011;13511;48.622;9.230;2023-04-03T14:23:08;5.85;;;5.65;;
25653;SDS011;13511;48.622;9.230;2023-04-03T14:25:35;6.57;;;6.07;;
25653;SDS011;13511;48.622;9.230;2023-04-03T14:28:01;6.07;;;5.78;;
25653;SDS011;13511;48.622;9.230;2023-04-03T14:30:28;6.28;;;5.90;;
25653;SDS011;13511;48.622;9.230;2023-04-03T14:32:55;6.15;;;5.70;;
25653;SDS011;13511;48.622;9.230;2023-04-03T14:35:21;6.07;;;5.78;;
25653;SDS011;13511;48.622;9.230;2023-04-03T14:37:47;5.70;;;5.38;;
25653;SDS011;13511;48.622;9.230;2023-04-03T14:40:15;6.28;;;5.78;;
25653;SDS011;13511;48.622;9.230;2023-04-03T14:42:41;9.98;;;6.07;;
25653;SDS011;13511;48.622;9.230;2023-04-03T14:45:09;6.00;;;5.70;;
25653;SDS011;13511;48.622;9.230;2023-04-03T14:47:37;6.18;;;5.63;;
25653;SDS011;13511;48.622;9.230;2023-04-03T14:50:06;6.68;;;6.28;;
25653;SDS011;13511;48.622;9.230;2023-04-03T14:52:34;5.90;;;5.50;;
25653;SDS011;13511;48.622;9.230;2023-04-03T14:55:01;6.10;;;5.70;;
25653;SDS011;13511;48.622;9.230;2023-04-03T14:57:28;6.15;;;5.85;;
25653;SDS011;13511;48.622;9.230;2023-04-03T14:59:54;6.18;;;5.78;;
25653;SDS011;13511;48.622;9.230;2023-04-03T15:04:49;6.10;;;5.65;;
25653;SDS011;13511;48.622;9.230;2023-04-03T15:07:15;6.30;;;5.82;;
25653;SDS011;13511;48.622;9.230;2023-04-03T15:09:41;6.75;;;6.25;;
25653;SDS011;13511;48.622;9.230;2023-04-03T15:12:08;7.00;;;6.50;;
25653;SDS011;13511;48.622;9.230;2023-04-03T15:14:35;6.43;;;6.03;;
25653;SDS011;13511;48.622;9.230;2023-04-03T15:17:01;7.60;;;6.85;;
25653;SDS011;13511;48.622;9.230;2023-04-03T15:19:28;6.72;;;6.22;;
25653;SDS011;13511;48.622;9.230;2023-04-03T15:21:54;7.75;;;7.00;;
25653;SDS011;13511;48.622;9.230;2023-04-03T15:24:23;7.10;;;6.50;;
25653;SDS011;13511;48.622;9.230;2023-04-03T15:26:49;6.72;;;6.22;;
25653;SDS011;13511;48.622;9.230;2023-04-03T15:29:15;7.10;;;6.60;;
25653;SDS011;13511;48.622;9.230;2023-04-03T15:31:41;6.78;;;6.38;;
25653;SDS011;13511;48.622;9.230;2023-04-03T15:34:07;6.57;;;6.07;;
25653;SDS011;13511;48.622;9.230;2023-04-03T15:36:33;6.90;;;6.28;;
25653;SDS011;13511;48.622;9.230;2023-04-03T15:38:59;7.05;;;6.70;;
25653;SDS011;13511;48.622;9.230;2023-04-03T15:41:25;6.70;;;6.25;;
25653;SDS011;13511;48.622;9.230;2023-04-03T15:43:51;6.50;;;6.20;;
25653;SDS011;13511;48.622;9.230;2023-04-03T15:46:17;6.82;;;6.30;;
25653;SDS011;13511;48.622;9.230;2023-04-03T15:48:43;7.00;;;6.50;;
25653;SDS011;13511;48.622;9.230;2023-04-03T15:51:09;6.57;;;6.18;;
25653;SDS011;13511;48.622;9.230;2023-04-03T15:53:35;6.90;;;6.45;;
25653;SDS011;13511;48.622;9.230;2023-04-03T15:56:01;6.38;;;6.07;;
25653;SDS011;13511;48.622;9.230;2023-04-03T15:58:29;7.47;;;6.78;;
25653;SDS011;13511;48.622;9.230;2023-04-03T16:00:55;6.90;;;6.35;;
25653;SDS011;13511;48.622;9.230;2023-04-03T16:03:21;6.78;;;6.38;;
25653;SDS011;13511;48.622;9.230;2023-04-03T16:05:49;7.05;;;6.40;;
25653;SDS011;13511;48.622;9.230;2023-04-03T16:08:16;6.70;;;6.07;;
25653;SDS011;13511;48.622;9.230;2023-04-03T16:10:42;6.47;;;6.10;;
25653;SDS011;13511;48.622;9.230;2023-04-03T16:13:10;6.60;;;6.28;;
25653;SDS011;13511;48.622;9.230;2023-04-03T16:15:36;6.88;;;6.43;;
25653;SDS011;13511;48.622;9.230;2023-04-03T16:18:02;6.55;;;6.05;;
25653;SDS011;13511;48.622;9.230;2023-04-03T16:20:29;6.93;;;6.43;;
25653;SDS011;13511;48.622;9.230;2023-04-03T16:22:56;6.68;;;6.20;;
25653;SDS011;13511;48.622;9.230;2023-04-03T16:25:22;5.55;;;5.25;;
25653;SDS011;13511;48.622;9.230;2023-04-03T16:27:48;5.47;;;5.07;;
25653;SDS011;13511;48.622;9.230;2023-04-03T16:30:14;5.95;;;5.43;;
25653;SDS011;13511;48.622;9.230;2023-04-03T16:32:40;7.25;;;5.47;;
25653;SDS011;13511;48.622;9.230;2023-04-03T16:35:06;6.15;;;5.55;;
25653;SDS011;13511;48.622;9.230;2023-04-03T16:37:35;6.03;;;5.60;;
25653;SDS011;13511;48.622;9.230;2023-04-03T16:40:01;5.35;;;5.13;;